createdAt,value
2017-08-21T00:00:40.153Z,95.61
2017-08-21T00:01:40.134Z,95.51
2017-08-21T00:02:40.105Z,95.51
2017-08-21T00:03:40.078Z,95.41
2017-08-21T00:04:40.067Z,95.61
2017-08-21T00:05:40.051Z,95.61
2017-08-21T00:06:39.723Z,95.51
2017-08-21T00:07:39.997Z,95.98
2017-08-21T00:08:39.673Z,95.98
2017-08-21T00:09:39.972Z,95.98
2017-08-21T00:10:39.933Z,96.08
2017-08-21T00:11:39.612Z,95.98
2017-08-21T00:12:39.887Z,96.03
2017-08-21T00:13:39.869Z,95.98
2017-08-21T00:14:39.851Z,95.7
2017-08-21T00:15:39.823Z,96.22
2017-08-21T00:16:39.808Z,95.84
2017-08-21T00:17:39.776Z,96.42
2017-08-21T00:18:39.753Z,96.51
2017-08-21T00:19:39.442Z,95.75
2017-08-21T00:20:39.713Z,96.32
2017-08-21T00:21:39.691Z,96.42
2017-08-21T00:22:39.670Z,96.51
2017-08-21T00:23:39.648Z,96.7
2017-08-21T00:24:39.628Z,96.7
2017-08-21T00:25:39.827Z,96.61
2017-08-21T00:26:39.580Z,96.61
2017-08-21T00:27:39.566Z,96.42
2017-08-21T00:28:39.533Z,96.8
2017-08-21T00:29:39.520Z,96.51
2017-08-21T00:30:39.492Z,96.42
2017-08-21T00:31:39.476Z,96.8
2017-08-21T00:32:39.448Z,96.61
2017-08-21T00:33:39.431Z,96.7
2017-08-21T00:34:39.152Z,96.51
2017-08-21T00:35:39.384Z,96.98
2017-08-21T00:36:39.359Z,97.08
2017-08-21T00:37:39.338Z,96.7
2017-08-21T00:38:39.324Z,97.18
2017-08-21T00:39:39.294Z,96.98
2017-08-21T00:40:39.277Z,96.89
2017-08-21T00:41:39.267Z,97.08
2017-08-21T00:42:39.239Z,97.18
2017-08-21T00:43:39.211Z,96.8
2017-08-21T00:44:39.188Z,96.8
2017-08-21T00:45:39.168Z,97.27
2017-08-21T00:46:39.188Z,97.27
2017-08-21T00:47:39.130Z,97.56
2017-08-21T00:48:39.097Z,97.47
2017-08-21T00:49:53.686Z,97.18
2017-08-21T00:50:39.055Z,97.32
2017-08-21T00:51:39.031Z,97.42
2017-08-21T00:52:39.012Z,97.8
2017-08-21T00:53:38.991Z,97.71
2017-08-21T00:54:38.966Z,97.56
2017-08-21T00:55:38.950Z,97.56
2017-08-21T00:56:38.929Z,97.56
2017-08-21T00:57:38.898Z,97.66
2017-08-21T00:58:38.877Z,97.75
2017-08-21T00:59:38.857Z,97.71
2017-08-21T01:00:38.840Z,97.71
2017-08-21T01:01:38.815Z,97.32
2017-08-21T01:02:38.789Z,97.32
2017-08-21T01:03:38.767Z,97.42
2017-08-21T01:04:38.995Z,97.8
2017-08-21T01:05:38.722Z,97.42
2017-08-21T01:06:38.700Z,97.22
2017-08-21T01:07:38.732Z,97.32
2017-08-21T01:08:38.708Z,97.89
2017-08-21T01:09:38.636Z,98.08
2017-08-21T01:10:38.612Z,98.27
2017-08-21T01:11:38.593Z,98.18
2017-08-21T01:12:38.566Z,97.99
2017-08-21T01:13:38.549Z,98.37
2017-08-21T01:14:38.531Z,97.71
2017-08-21T01:15:38.510Z,97.8
2017-08-21T01:16:38.184Z,97.8
2017-08-21T01:17:38.457Z,98.37
2017-08-21T01:18:38.437Z,98.27
2017-08-21T01:19:38.420Z,97.99
2017-08-21T01:20:53.002Z,98.18
2017-08-21T01:21:38.377Z,98.47
2017-08-21T01:22:38.396Z,98.66
2017-08-21T01:23:38.024Z,98.27
2017-08-21T01:24:38.307Z,98.18
2017-08-21T01:25:38.283Z,98.27
2017-08-21T01:26:38.265Z,98.56
2017-08-21T01:27:38.238Z,98.18
2017-08-21T01:28:38.215Z,98.18
2017-08-21T01:29:38.195Z,98.37
2017-08-21T01:30:38.170Z,98.85
2017-08-21T01:31:38.151Z,98.94
2017-08-21T01:32:38.130Z,98.85
2017-08-21T01:33:38.106Z,98.75
2017-08-21T01:34:38.133Z,98.66
2017-08-21T01:35:38.077Z,98.94
2017-08-21T01:36:38.040Z,99.32
2017-08-21T01:37:38.022Z,99.04
2017-08-21T01:38:37.994Z,98.99
2017-08-21T01:39:37.975Z,99.18
2017-08-21T01:40:37.951Z,98.75
2017-08-21T01:41:37.985Z,99.32
2017-08-21T01:42:37.917Z,99.27
2017-08-21T01:43:37.888Z,99.27
2017-08-21T01:44:37.876Z,99.13
2017-08-21T01:45:37.844Z,99.04
2017-08-21T01:46:37.820Z,99.08
2017-08-21T01:47:37.799Z,98.7
2017-08-21T01:48:37.468Z,99.08
2017-08-21T01:49:37.751Z,99.37
2017-08-21T01:50:37.728Z,99.37
2017-08-21T01:51:37.742Z,99.27
2017-08-21T01:52:37.687Z,99.46
2017-08-21T01:53:37.660Z,99.75
2017-08-21T01:54:37.644Z,99.66
2017-08-21T01:55:37.620Z,99.75
2017-08-21T01:56:37.603Z,99.37
2017-08-21T01:57:37.574Z,99.85
2017-08-21T01:58:37.552Z,99.46
2017-08-21T01:59:37.537Z,99.46
2017-08-21T02:00:37.503Z,99.56
2017-08-21T02:01:37.482Z,99.46
2017-08-21T02:02:37.464Z,99.95
2017-08-21T02:03:37.445Z,99.95
2017-08-21T02:04:37.422Z,99.99
2017-08-21T02:05:37.401Z,99.85
2017-08-21T02:06:37.379Z,99.95
2017-08-21T02:07:37.350Z,99.95
2017-08-21T02:08:37.328Z,99.99
2017-08-21T02:09:37.308Z,99.99
2017-08-21T02:10:37.285Z,99.75
2017-08-21T02:11:37.312Z,99.95
2017-08-21T02:12:37.245Z,99.99
2017-08-21T02:13:37.218Z,99.75
2017-08-21T02:14:37.199Z,99.99
2017-08-21T02:15:37.174Z,99.85
2017-08-21T02:16:37.152Z,99.85
2017-08-21T02:17:37.139Z,99.75
2017-08-21T02:18:37.110Z,99.85
2017-08-21T02:19:37.085Z,99.75
2017-08-21T02:20:37.067Z,99.85
2017-08-21T02:21:37.040Z,99.66
2017-08-21T02:22:37.023Z,99.85
2017-08-21T02:23:37.055Z,99.99
2017-08-21T02:24:36.978Z,99.95
2017-08-21T02:25:36.950Z,99.46
2017-08-21T02:26:36.929Z,99.46
2017-08-21T02:27:36.914Z,99.85
2017-08-21T02:28:36.895Z,99.85
2017-08-21T02:29:36.871Z,99.95
2017-08-21T02:30:36.837Z,99.75
2017-08-21T02:31:36.836Z,99.66
2017-08-21T02:32:36.857Z,99.85
2017-08-21T02:33:36.773Z,99.85
2017-08-21T02:34:36.752Z,99.95
2017-08-21T02:35:36.728Z,99.99
2017-08-21T02:36:36.752Z,99.85
2017-08-21T02:37:36.686Z,99.66
2017-08-21T02:38:36.663Z,99.75
2017-08-21T02:39:36.641Z,99.85
2017-08-21T02:40:36.626Z,99.9
2017-08-21T02:41:36.599Z,99.95
2017-08-21T02:42:36.573Z,99.56
2017-08-21T02:43:36.652Z,99.95
2017-08-21T02:44:36.534Z,99.75
2017-08-21T02:45:36.211Z,99.75
2017-08-21T02:46:36.490Z,99.75
2017-08-21T02:47:36.464Z,99.85
2017-08-21T02:48:36.444Z,99.66
2017-08-21T02:49:36.418Z,99.99
2017-08-21T02:50:36.390Z,99.95
2017-08-21T02:51:36.375Z,99.99
2017-08-21T02:52:36.347Z,99.66
2017-08-21T02:53:36.330Z,99.75
2017-08-21T02:54:36.307Z,99.95
2017-08-21T02:55:35.987Z,99.66
2017-08-21T02:56:35.964Z,99.66
2017-08-21T02:57:36.247Z,99.99
2017-08-21T02:58:35.915Z,99.99
2017-08-21T02:59:36.196Z,99.99
2017-08-21T03:00:36.176Z,99.99
2017-08-21T03:01:36.155Z,99.85
2017-08-21T03:02:36.130Z,99.99
2017-08-21T03:03:36.109Z,99.99
2017-08-21T03:04:36.133Z,99.99
2017-08-21T03:05:36.064Z,99.99
2017-08-21T03:06:36.091Z,99.99
2017-08-21T03:07:36.018Z,99.99
2017-08-21T03:08:35.994Z,99.99
2017-08-21T03:09:35.972Z,99.99
2017-08-21T03:10:36.001Z,99.99
2017-08-21T03:11:35.929Z,99.99
2017-08-21T03:12:35.905Z,99.99
2017-08-21T03:13:35.883Z,99.99
2017-08-21T03:14:35.859Z,99.99
2017-08-21T03:15:35.839Z,99.99
2017-08-21T03:16:35.813Z,99.99
2017-08-21T03:17:35.798Z,99.99
2017-08-21T03:18:35.775Z,99.99
2017-08-21T03:19:35.753Z,99.99
2017-08-21T03:20:35.721Z,99.99
2017-08-21T03:21:35.708Z,99.99
2017-08-21T03:22:35.683Z,99.95
2017-08-21T03:23:35.658Z,99.95
2017-08-21T03:24:35.639Z,99.99
2017-08-21T03:25:35.618Z,99.99
2017-08-21T03:26:35.602Z,99.99
2017-08-21T03:27:35.622Z,99.99
2017-08-21T03:28:35.555Z,99.99
2017-08-21T03:29:35.528Z,99.99
2017-08-21T03:30:35.507Z,99.99
2017-08-21T03:31:35.488Z,99.99
2017-08-21T03:32:35.461Z,99.99
2017-08-21T03:33:35.440Z,99.99
2017-08-21T03:34:35.445Z,99.99
2017-08-21T03:35:35.394Z,99.99
2017-08-21T03:36:35.372Z,99.99
2017-08-21T03:37:35.347Z,99.99
2017-08-21T03:38:35.321Z,99.99
2017-08-21T03:39:35.307Z,99.99
2017-08-21T03:40:35.283Z,99.99
2017-08-21T03:41:35.261Z,99.99
2017-08-21T03:42:35.238Z,99.99
2017-08-21T03:43:35.214Z,99.99
2017-08-21T03:44:35.194Z,99.99
2017-08-21T03:45:35.165Z,99.99
2017-08-21T03:46:35.149Z,99.99
2017-08-21T03:47:35.123Z,99.99
2017-08-21T03:48:35.108Z,99.99
2017-08-21T03:49:35.089Z,99.99
2017-08-21T03:50:35.068Z,99.99
2017-08-21T03:51:35.045Z,99.99
2017-08-21T03:52:35.012Z,99.99
2017-08-21T03:53:34.992Z,99.99
2017-08-21T03:54:34.970Z,99.99
2017-08-21T03:55:34.946Z,99.99
2017-08-21T03:56:34.625Z,99.99
2017-08-21T03:57:34.652Z,99.99
2017-08-21T03:58:34.885Z,99.99
2017-08-21T03:59:34.857Z,99.99
2017-08-21T04:00:34.839Z,99.99
2017-08-21T04:01:34.809Z,99.99
2017-08-21T04:02:34.840Z,99.99
2017-08-21T04:03:34.768Z,99.99
2017-08-21T04:04:34.745Z,99.99
2017-08-21T04:05:34.726Z,99.99
2017-08-21T04:06:34.703Z,99.99
2017-08-21T04:07:34.385Z,99.99
2017-08-21T04:08:34.660Z,99.99
2017-08-21T04:09:34.645Z,99.99
2017-08-21T04:10:34.615Z,99.99
2017-08-21T04:11:34.589Z,99.99
2017-08-21T04:12:34.572Z,99.99
2017-08-21T04:13:34.546Z,99.99
2017-08-21T04:14:34.534Z,99.99
2017-08-21T04:15:34.509Z,99.99
2017-08-21T04:16:34.482Z,99.99
2017-08-21T04:17:34.455Z,99.99
2017-08-21T04:18:34.432Z,99.99
2017-08-21T04:19:34.416Z,99.99
2017-08-21T04:20:34.391Z,99.99
2017-08-21T04:21:34.366Z,99.99
2017-08-21T04:22:34.344Z,99.99
2017-08-21T04:23:34.321Z,99.99
2017-08-21T04:24:34.294Z,99.99
2017-08-21T04:25:34.278Z,99.99
2017-08-21T04:26:34.257Z,99.99
2017-08-21T04:27:34.238Z,99.99
2017-08-21T04:28:34.210Z,99.99
2017-08-21T04:29:34.186Z,99.99
2017-08-21T04:30:34.167Z,99.99
2017-08-21T04:31:34.138Z,99.99
2017-08-21T04:32:33.822Z,99.99
2017-08-21T04:33:34.099Z,99.99
2017-08-21T04:34:34.074Z,99.99
2017-08-21T04:35:34.053Z,99.99
2017-08-21T04:36:34.030Z,99.99
2017-08-21T04:37:34.007Z,99.99
2017-08-21T04:38:33.985Z,99.99
2017-08-21T04:39:34.217Z,99.99
2017-08-21T04:40:33.943Z,99.99
2017-08-21T04:41:33.920Z,99.99
2017-08-21T04:42:33.895Z,99.99
2017-08-21T04:43:33.884Z,99.99
2017-08-21T04:44:33.850Z,99.99
2017-08-21T04:45:33.834Z,99.99
2017-08-21T04:46:33.804Z,99.99
2017-08-21T04:47:33.784Z,99.99
2017-08-21T04:48:33.766Z,99.99
2017-08-21T04:49:33.740Z,99.99
2017-08-21T04:50:33.724Z,99.99
2017-08-21T04:51:33.693Z,99.99
2017-08-21T04:52:33.681Z,99.99
2017-08-21T04:53:33.655Z,99.99
2017-08-21T04:54:33.629Z,99.99
2017-08-21T04:55:33.611Z,99.99
2017-08-21T04:56:33.585Z,99.99
2017-08-21T04:57:33.562Z,99.99
2017-08-21T04:58:33.568Z,99.99
2017-08-21T04:59:33.520Z,99.99
2017-08-21T05:00:33.493Z,99.99
2017-08-21T05:01:33.476Z,99.99
2017-08-21T05:02:33.451Z,99.99
2017-08-21T05:03:33.428Z,99.99
2017-08-21T05:04:33.407Z,99.95
2017-08-21T05:05:33.389Z,99.95
2017-08-21T05:06:33.369Z,99.99
2017-08-21T05:07:33.344Z,99.57
2017-08-21T05:08:33.321Z,99.66
2017-08-21T05:09:33.300Z,99.66
2017-08-21T05:10:33.279Z,99.57
2017-08-21T05:11:33.263Z,99.23
2017-08-21T05:12:33.239Z,99.23
2017-08-21T05:13:33.219Z,99.43
2017-08-21T05:14:33.190Z,98.66
2017-08-21T05:15:33.168Z,98.94
2017-08-21T05:16:33.153Z,98.18
2017-08-21T05:17:33.178Z,98.47
2017-08-21T05:18:33.115Z,98.66
2017-08-21T05:19:33.087Z,98.75
2017-08-21T05:20:33.061Z,98.04
2017-08-21T05:21:33.041Z,98.42
2017-08-21T05:22:33.031Z,98.13
2017-08-21T05:23:32.999Z,97.56
2017-08-21T05:24:32.982Z,97.75
2017-08-21T05:25:32.969Z,97.08
2017-08-21T05:26:32.941Z,97.23
2017-08-21T05:27:32.916Z,97.23
2017-08-21T05:28:32.891Z,96.75
2017-08-21T05:29:32.925Z,97.04
2017-08-21T05:30:32.852Z,96.37
2017-08-21T05:31:32.833Z,97.13
2017-08-21T05:32:32.810Z,96.47
2017-08-21T05:33:32.788Z,96.47
2017-08-21T05:34:32.780Z,95.79
2017-08-21T05:35:32.752Z,96.13
2017-08-21T05:36:32.731Z,96.03
2017-08-21T05:37:32.704Z,95.84
2017-08-21T05:38:32.683Z,95.84
2017-08-21T05:39:32.665Z,95.27
2017-08-21T05:40:32.642Z,95.65
2017-08-21T05:41:32.627Z,95.07
2017-08-21T05:42:32.603Z,94.98
2017-08-21T05:43:32.580Z,95.22
2017-08-21T05:44:32.559Z,94.93
2017-08-21T05:45:32.546Z,94.84
2017-08-21T05:46:32.521Z,94.65
2017-08-21T05:47:32.495Z,93.88
2017-08-21T05:48:32.492Z,94.26
2017-08-21T05:49:32.455Z,94.17
2017-08-21T05:50:32.440Z,94.07
2017-08-21T05:51:32.462Z,93.88
2017-08-21T05:52:32.398Z,93.79
2017-08-21T05:53:32.370Z,93.3
2017-08-21T05:54:32.357Z,93.21
2017-08-21T05:55:32.349Z,92.63
2017-08-21T05:56:32.322Z,93.16
2017-08-21T05:57:32.298Z,93.35
2017-08-21T05:58:32.274Z,92.87
2017-08-21T05:59:32.256Z,92.78
2017-08-21T06:00:32.234Z,92.58
2017-08-21T06:01:32.236Z,92.01
2017-08-21T06:02:32.195Z,92.21
2017-08-21T06:03:32.208Z,92.21
2017-08-21T06:04:32.155Z,91.67
2017-08-21T06:05:32.141Z,91.49
2017-08-21T06:06:32.126Z,91.77
2017-08-21T06:07:32.099Z,91.1
2017-08-21T06:08:32.082Z,91.1
2017-08-21T06:09:32.057Z,90.91
2017-08-21T06:10:32.042Z,91
2017-08-21T06:11:32.020Z,90.57
2017-08-21T06:12:32.004Z,90.38
2017-08-21T06:13:31.978Z,89.85
2017-08-21T06:14:31.971Z,89.32
2017-08-21T06:15:31.937Z,89.47
2017-08-21T06:16:31.930Z,89.27
2017-08-21T06:17:31.949Z,89.08
2017-08-21T06:18:31.878Z,88.79
2017-08-21T06:19:31.860Z,88.41
2017-08-21T06:20:31.843Z,88.41
2017-08-21T06:21:31.833Z,88.02
2017-08-21T06:22:31.803Z,87.59
2017-08-21T06:23:31.788Z,87.3
2017-08-21T06:24:31.766Z,87.21
2017-08-21T06:25:31.803Z,87.11
2017-08-21T06:26:31.744Z,87.4
2017-08-21T06:27:31.713Z,86.58
2017-08-21T06:28:31.694Z,86.68
2017-08-21T06:29:31.689Z,86.1
2017-08-21T06:30:31.653Z,86.29
2017-08-21T06:31:31.639Z,86.1
2017-08-21T06:32:31.613Z,85.47
2017-08-21T06:33:31.598Z,84.41
2017-08-21T06:34:31.600Z,84.6
2017-08-21T06:35:31.569Z,84.22
2017-08-21T06:36:31.540Z,83.54
2017-08-21T06:37:31.515Z,83.74
2017-08-21T06:38:31.500Z,83.64
2017-08-21T06:39:31.490Z,83.74
2017-08-21T06:40:31.173Z,83.74
2017-08-21T06:41:31.462Z,83.54
2017-08-21T06:42:31.431Z,83.84
2017-08-21T06:43:31.413Z,83.07
2017-08-21T06:44:31.490Z,82.97
2017-08-21T06:45:31.385Z,82.87
2017-08-21T06:46:31.357Z,83.11
2017-08-21T06:47:31.340Z,82.53
2017-08-21T06:48:31.321Z,81.71
2017-08-21T06:49:31.308Z,80.84
2017-08-21T06:50:31.281Z,80.46
2017-08-21T06:51:31.270Z,80.75
2017-08-21T06:52:31.248Z,80.17
2017-08-21T06:53:31.232Z,79.88
2017-08-21T06:54:31.212Z,79.3
2017-08-21T06:55:31.195Z,79.5
2017-08-21T06:56:31.176Z,79.79
2017-08-21T06:57:31.158Z,78.67
2017-08-21T06:58:31.143Z,78.96
2017-08-21T06:59:31.130Z,78.77
2017-08-21T07:00:31.111Z,78.86
2017-08-21T07:01:31.098Z,78.38
2017-08-21T07:02:31.083Z,77.51
2017-08-21T07:03:31.055Z,77.71
2017-08-21T07:04:31.067Z,77.71
2017-08-21T07:05:31.023Z,77.65
2017-08-21T07:06:31.009Z,76.98
2017-08-21T07:07:30.989Z,77.01
2017-08-21T07:08:31.021Z,76.34
2017-08-21T07:09:30.952Z,75.23
2017-08-21T07:10:30.937Z,74.65
2017-08-21T07:11:30.925Z,74.65
2017-08-21T07:12:30.912Z,73.88
2017-08-21T07:13:30.889Z,73.01
2017-08-21T07:14:30.881Z,71.89
2017-08-21T07:15:30.860Z,71.79
2017-08-21T07:16:30.840Z,71.6
2017-08-21T07:17:30.827Z,70.54
2017-08-21T07:18:30.817Z,69.96
2017-08-21T07:19:30.792Z,70.15
2017-08-21T07:20:30.777Z,70.35
2017-08-21T07:21:30.769Z,70.06
2017-08-21T07:22:30.750Z,69.29
2017-08-21T07:23:30.729Z,69.23
2017-08-21T07:24:30.710Z,69.42
2017-08-21T07:25:30.700Z,68.93
2017-08-21T07:26:30.686Z,68.68
2017-08-21T07:27:30.665Z,67.36
2017-08-21T07:28:30.401Z,65.91
2017-08-21T07:29:30.639Z,66.11
2017-08-21T07:30:30.323Z,64.66
2017-08-21T07:31:30.610Z,64.5
2017-08-21T07:32:30.640Z,64.31
2017-08-21T07:33:30.578Z,64.5
2017-08-21T07:34:30.559Z,64.11
2017-08-21T07:35:30.544Z,63.47
2017-08-21T07:36:30.533Z,62.7
2017-08-21T07:37:30.520Z,60.67
2017-08-21T07:38:30.506Z,60.47
2017-08-21T07:39:30.487Z,61.22
2017-08-21T07:40:30.482Z,59.99
2017-08-21T07:41:30.468Z,60.38
2017-08-21T07:42:30.446Z,60.28
2017-08-21T07:43:30.436Z,60.25
2017-08-21T07:44:30.429Z,60.54
2017-08-21T07:45:30.407Z,60.64
2017-08-21T07:46:30.387Z,59.99
2017-08-21T07:47:30.376Z,59.99
2017-08-21T07:48:30.362Z,57.79
2017-08-21T07:49:30.347Z,58.18
2017-08-21T07:50:30.332Z,58.18
2017-08-21T07:51:30.321Z,57.79
2017-08-21T07:52:30.307Z,56.09
2017-08-21T07:53:30.345Z,56.18
2017-08-21T07:54:30.279Z,55.99
2017-08-21T07:55:30.266Z,56.09
2017-08-21T07:56:30.250Z,56.18
2017-08-21T07:57:30.247Z,55.31
2017-08-21T07:58:30.226Z,55.6
2017-08-21T07:59:30.211Z,55.89
2017-08-21T08:00:30.218Z,55.11
2017-08-21T08:01:30.193Z,54.85
2017-08-21T08:02:30.185Z,54.59
2017-08-21T08:03:30.158Z,52.85
2017-08-21T08:04:30.147Z,53.04
2017-08-21T08:05:30.135Z,53.07
2017-08-21T08:06:30.126Z,52.49
2017-08-21T08:07:30.107Z,51.72
2017-08-21T08:08:30.108Z,50.48
2017-08-21T08:09:30.081Z,50.09
2017-08-21T08:10:30.064Z,50.65
2017-08-21T08:11:30.065Z,51.13
2017-08-21T08:12:30.045Z,50.94
2017-08-21T08:13:30.035Z,50.87
2017-08-21T08:14:30.025Z,50.41
2017-08-21T08:15:30.009Z,49.37
2017-08-21T08:16:29.998Z,49.07
2017-08-21T08:17:29.993Z,48.49
2017-08-21T08:18:29.977Z,48.3
2017-08-21T08:19:29.968Z,48.78
2017-08-21T08:20:29.956Z,47.16
2017-08-21T08:21:29.944Z,46.79
2017-08-21T08:22:29.938Z,46.41
2017-08-21T08:23:29.931Z,46.41
2017-08-21T08:24:29.910Z,47.45
2017-08-21T08:25:29.898Z,47.45
2017-08-21T08:26:29.886Z,46.86
2017-08-21T08:27:29.875Z,46.19
2017-08-21T08:28:29.867Z,46.55
2017-08-21T08:29:29.856Z,47.89
2017-08-21T08:30:29.843Z,48.85
2017-08-21T08:31:29.837Z,47.6
2017-08-21T08:32:29.823Z,48.47
2017-08-21T08:33:29.816Z,49.32
2017-08-21T08:34:29.811Z,48.74
2017-08-21T08:35:29.789Z,48.76
2017-08-21T08:36:29.776Z,49.05
2017-08-21T08:37:29.769Z,46.24
2017-08-21T08:38:29.756Z,48.06
2017-08-21T08:39:29.766Z,49.1
2017-08-21T08:40:29.733Z,49.68
2017-08-21T08:41:29.723Z,49.68
2017-08-21T08:42:29.410Z,49.68
2017-08-21T08:43:29.695Z,50.07
2017-08-21T08:44:29.688Z,49.68
2017-08-21T08:45:29.676Z,48.61
2017-08-21T08:46:29.656Z,49.29
2017-08-21T08:47:29.689Z,49.39
2017-08-21T08:48:29.635Z,48.42
2017-08-21T08:49:29.624Z,48.71
2017-08-21T08:50:29.613Z,48.93
2017-08-21T08:51:29.302Z,48.71
2017-08-21T08:52:29.583Z,49.39
2017-08-21T08:53:29.585Z,50.33
2017-08-21T08:54:29.615Z,52.22
2017-08-21T08:55:29.550Z,53.25
2017-08-21T08:56:29.544Z,52.97
2017-08-21T08:57:29.522Z,53.81
2017-08-21T08:58:29.518Z,54.75
2017-08-21T08:59:29.499Z,55.9
2017-08-21T09:00:29.496Z,55.78
2017-08-21T09:01:29.467Z,57.42
2017-08-21T09:02:29.470Z,57.32
2017-08-21T09:03:29.447Z,57.04
2017-08-21T09:04:29.443Z,57.81
2017-08-21T09:05:29.417Z,58.36
2017-08-21T09:06:29.405Z,58.84
2017-08-21T09:07:29.391Z,58.48
2017-08-21T09:08:29.375Z,57.19
2017-08-21T09:09:29.610Z,55.96
2017-08-21T09:10:29.345Z,53.77
2017-08-21T09:11:29.336Z,51.86
2017-08-21T09:12:29.324Z,51.01
2017-08-21T09:13:29.306Z,49.1
2017-08-21T09:14:29.286Z,49.1
2017-08-21T09:15:29.282Z,49.77
2017-08-21T09:16:29.263Z,49.58
2017-08-21T09:17:29.259Z,49.22
2017-08-21T09:18:29.242Z,48.64
2017-08-21T09:19:29.273Z,47.98
2017-08-21T09:20:29.210Z,46.45
2017-08-21T09:21:29.207Z,46.16
2017-08-21T09:22:29.194Z,45.8
2017-08-21T09:23:29.183Z,45.04
2017-08-21T09:24:29.165Z,43.71
2017-08-21T09:25:29.153Z,43.61
2017-08-21T09:26:29.157Z,43.24
2017-08-21T09:27:29.184Z,42.85
2017-08-21T09:28:29.126Z,42.29
2017-08-21T09:29:28.821Z,41.71
2017-08-21T09:30:29.107Z,41.61
2017-08-21T09:31:29.096Z,41.98
2017-08-21T09:32:29.078Z,41.78
2017-08-21T09:33:29.079Z,41.59
2017-08-21T09:34:29.064Z,41.98
2017-08-21T09:35:29.052Z,42.36
2017-08-21T09:36:29.051Z,41.59
2017-08-21T09:37:29.035Z,41.78
2017-08-21T09:38:29.023Z,40.72
2017-08-21T09:39:29.010Z,41.01
2017-08-21T09:40:29.004Z,42.15
2017-08-21T09:41:29.043Z,42.81
2017-08-21T09:42:28.982Z,43.93
2017-08-21T09:43:28.974Z,45.56
2017-08-21T09:44:28.976Z,46.48
2017-08-21T09:45:28.957Z,47.45
2017-08-21T09:46:28.937Z,47.55
2017-08-21T09:47:28.933Z,47.74
2017-08-21T09:48:28.915Z,47.67
2017-08-21T09:49:28.983Z,46.53
2017-08-21T09:50:28.896Z,44.88
2017-08-21T09:51:28.887Z,44.49
2017-08-21T09:52:28.876Z,44.88
2017-08-21T09:53:28.858Z,45.65
2017-08-21T09:54:28.846Z,46.8
2017-08-21T09:55:28.833Z,47.16
2017-08-21T09:56:28.829Z,48.88
2017-08-21T09:57:28.815Z,49.63
2017-08-21T09:58:28.802Z,49.99
2017-08-21T09:59:28.787Z,50.93
2017-08-21T10:00:28.776Z,51.39
2017-08-21T10:01:28.767Z,52.55
2017-08-21T10:02:28.750Z,51.39
2017-08-21T10:03:28.736Z,51.32
2017-08-21T10:04:28.732Z,52.07
2017-08-21T10:05:28.714Z,52.43
2017-08-21T10:06:28.701Z,53.3
2017-08-21T10:07:28.687Z,51.2
2017-08-21T10:08:28.667Z,52.26
2017-08-21T10:09:28.655Z,52.09
2017-08-21T10:10:28.642Z,52.09
2017-08-21T10:11:28.327Z,51.54
2017-08-21T10:12:28.619Z,48.86
2017-08-21T10:13:28.852Z,48.11
2017-08-21T10:14:28.587Z,47.62
2017-08-21T10:15:28.576Z,48.69
2017-08-21T10:16:28.559Z,48.69
2017-08-21T10:17:28.551Z,48.76
2017-08-21T10:18:28.533Z,48.95
2017-08-21T10:19:28.519Z,49.7
2017-08-21T10:20:28.506Z,50.67
2017-08-21T10:21:28.499Z,50.57
2017-08-21T10:22:28.482Z,48.57
2017-08-21T10:23:28.469Z,47.89
2017-08-21T10:24:28.455Z,47.41
2017-08-21T10:25:28.442Z,46.36
2017-08-21T10:26:28.433Z,45.71
2017-08-21T10:27:28.417Z,45.44
2017-08-21T10:28:28.404Z,44.49
2017-08-21T10:29:28.392Z,44.2
2017-08-21T10:30:28.380Z,43.26
2017-08-21T10:31:28.381Z,42.89
2017-08-21T10:32:28.357Z,42.3
2017-08-21T10:33:28.354Z,42.23
2017-08-21T10:34:28.341Z,40.97
2017-08-21T10:35:28.323Z,41.45
2017-08-21T10:36:28.318Z,42.02
2017-08-21T10:37:28.309Z,43.35
2017-08-21T10:38:28.290Z,43.82
2017-08-21T10:39:28.279Z,44.47
2017-08-21T10:40:28.272Z,45.15
2017-08-21T10:41:28.264Z,45.61
2017-08-21T10:42:28.253Z,45.9
2017-08-21T10:43:28.243Z,46.56
2017-08-21T10:44:28.230Z,46.15
2017-08-21T10:45:28.218Z,47.58
2017-08-21T10:46:28.455Z,47.67
2017-08-21T10:47:27.889Z,48.03
2017-08-21T10:48:28.176Z,48.16
2017-08-21T10:49:28.166Z,48.61
2017-08-21T10:50:28.155Z,49.19
2017-08-21T10:51:28.140Z,49
2017-08-21T10:52:28.125Z,48.81
2017-08-21T10:53:28.159Z,49.1
2017-08-21T10:54:28.108Z,48.52
2017-08-21T10:55:28.089Z,48.61
2017-08-21T10:56:28.076Z,48.97
2017-08-21T10:57:28.111Z,49.37
2017-08-21T10:58:28.036Z,49.53
2017-08-21T10:59:28.032Z,50.04
2017-08-21T11:00:28.015Z,50.5
2017-08-21T11:01:28.004Z,50.5
2017-08-21T11:02:27.983Z,50.5
2017-08-21T11:03:27.976Z,50.71
2017-08-21T11:04:27.949Z,50.31
2017-08-21T11:05:27.931Z,50.33
2017-08-21T11:06:27.969Z,50.59
2017-08-21T11:07:27.910Z,50.4
2017-08-21T11:08:27.891Z,50.71
2017-08-21T11:09:27.875Z,51.37
2017-08-21T11:10:27.862Z,52.04
2017-08-21T11:11:27.849Z,51.37
2017-08-21T11:12:27.839Z,51.56
2017-08-21T11:13:27.818Z,51.82
2017-08-21T11:14:27.794Z,51.73
2017-08-21T11:15:27.781Z,52.31
2017-08-21T11:16:27.766Z,52.79
2017-08-21T11:17:27.743Z,52.4
2017-08-21T11:18:27.738Z,52.01
2017-08-21T11:19:27.720Z,51.82
2017-08-21T11:20:27.695Z,52.79
2017-08-21T11:21:27.679Z,53.08
2017-08-21T11:22:27.666Z,53.47
2017-08-21T11:23:27.645Z,53.37
2017-08-21T11:24:27.638Z,53.66
2017-08-21T11:25:27.617Z,53.08
2017-08-21T11:26:27.296Z,52.79
2017-08-21T11:27:27.582Z,52.31
2017-08-21T11:28:27.567Z,52.31
2017-08-21T11:29:27.558Z,52.37
2017-08-21T11:30:27.553Z,52.67
2017-08-21T11:31:27.236Z,52.95
2017-08-21T11:32:27.500Z,53.7
2017-08-21T11:33:27.482Z,53.99
2017-08-21T11:34:27.470Z,54.57
2017-08-21T11:35:27.453Z,55.34
2017-08-21T11:36:27.431Z,55.7
2017-08-21T11:37:27.424Z,56.95
2017-08-21T11:38:27.395Z,56.66
2017-08-21T11:39:27.481Z,57.72
2017-08-21T11:40:27.495Z,57.82
2017-08-21T11:41:27.352Z,57.05
2017-08-21T11:42:27.333Z,57.37
2017-08-21T11:43:27.320Z,57.37
2017-08-21T11:44:27.293Z,56.88
2017-08-21T11:45:27.289Z,56.49
2017-08-21T11:46:27.264Z,56.98
2017-08-21T11:47:27.250Z,56.49
2017-08-21T11:48:27.231Z,55.82
2017-08-21T11:49:27.205Z,55.34
2017-08-21T11:50:27.195Z,55.63
2017-08-21T11:51:27.174Z,55.79
2017-08-21T11:52:27.161Z,55.7
2017-08-21T11:53:27.139Z,56.18
2017-08-21T11:54:27.164Z,56.47
2017-08-21T11:55:27.110Z,56.44
2017-08-21T11:56:26.783Z,56.82
2017-08-21T11:57:27.077Z,57.24
2017-08-21T11:58:27.056Z,56.76
2017-08-21T11:59:27.033Z,56.85
2017-08-21T12:00:27.015Z,56.95
2017-08-21T12:01:27.001Z,57.53
2017-08-21T12:02:26.985Z,57.24
2017-08-21T12:03:26.657Z,56.98
2017-08-21T12:04:27.241Z,56.21
2017-08-21T12:05:26.919Z,55.92
2017-08-21T12:06:26.926Z,55.92
2017-08-21T12:07:26.888Z,55.85
2017-08-21T12:08:26.926Z,54.96
2017-08-21T12:09:26.867Z,54.96
2017-08-21T12:10:26.795Z,54.57
2017-08-21T12:11:26.871Z,55.63
2017-08-21T12:12:26.802Z,56.4
2017-08-21T12:13:26.998Z,56.47
2017-08-21T12:14:26.466Z,56.85
2017-08-21T12:15:26.752Z,57.14
2017-08-21T12:16:26.785Z,57.53
2017-08-21T12:17:27.002Z,57.72
2017-08-21T12:18:26.692Z,58.4
2017-08-21T12:19:26.704Z,58.47
2017-08-21T12:20:26.654Z,59.14
2017-08-21T12:21:26.649Z,58.95
2017-08-21T12:22:26.689Z,58.56
2017-08-21T12:23:26.613Z,58.47
2017-08-21T12:24:26.586Z,58.56
2017-08-21T12:25:26.632Z,57.89
2017-08-21T12:26:26.557Z,57.92
2017-08-21T12:27:26.537Z,57.69
2017-08-21T12:28:26.528Z,57.31
2017-08-21T12:29:26.608Z,57.31
2017-08-21T12:30:26.500Z,57.79
2017-08-21T12:31:26.465Z,57.98
2017-08-21T12:32:26.463Z,58.08
2017-08-21T12:33:26.443Z,58.56
2017-08-21T12:34:26.413Z,59.52
2017-08-21T12:35:26.391Z,59.91
2017-08-21T12:36:26.424Z,59.43
2017-08-21T12:37:26.370Z,59.91
2017-08-21T12:38:26.341Z,59.91
2017-08-21T12:39:26.061Z,59.81
2017-08-21T12:40:26.306Z,59.91
2017-08-21T12:41:26.349Z,59.33
2017-08-21T12:42:26.270Z,60.2
2017-08-21T12:43:26.253Z,60.39
2017-08-21T12:44:26.227Z,60.58
2017-08-21T12:45:25.964Z,60.49
2017-08-21T12:46:26.187Z,60.49
2017-08-21T12:47:26.249Z,60.87
2017-08-21T12:48:26.158Z,60.97
2017-08-21T12:49:26.149Z,61.16
2017-08-21T12:50:26.198Z,60.9
2017-08-21T12:51:25.796Z,60.03
2017-08-21T12:52:26.085Z,60.42
2017-08-21T12:53:26.069Z,60.61
2017-08-21T12:54:26.063Z,60.42